Terminal Aerodrome Forecast
Issued by NWS

Home | Current Version | Previous Version | Text Only | Print | Product List | Glossary On
Versions: 1 2 3 4 5 6 7 8 9 10 11 12 13 14 15 16 17 18 19 20 21
000
FTUS42 KMLB 031311 AAA
TAFSFB
TAF AMD
KSFB 031311Z 0313/0412 00000KT 6SM BR SCT007 BKN025
     FM031500 11010KT P6SM SCT035
     FM040000 11006KT P6SM FEW035 SCT250
     FM040900 18003KT 3SM BR BKN006
      TEMPO 0409/0412 1SM BR BKN004=

USA.gov is the U.S. government's official web portal to all federal, state and local government web resources and services.